Flight Track Log - Related Links

Times and Time Zones

All times are in EST time to prevent confusion due to time zone crossing. See the SWA394 flight status page for this flight to view local times or setup timezone preferences in your user account.

Time Position Orientation Groundspeed Altitude Reporting Facility
EST Latitude Longitude Course Direction KTS MPH feet Rate Location/Type
Sun 11:02:03 AM 28.4333 -81.3000 30° Northeast 142 163 1,100  Level Orlando TRACON
Sun 11:03:03 AM 28.4833 -81.2667 30° Northeast 210 242 3,400 2,826 Climbing Orlando TRACON
Sun 11:04:04 AM 28.5333 -81.2500 16° North 254 292 6,800 3,672 Climbing Orlando TRACON
Sun 11:06:06 AM 28.6992 -81.2950 347° North 278 320 14,600 3,626 Climbing Jacksonville Center
Sun 11:07:06 AM 28.7892 -81.3147 349° North 305 351 17,800 2,900 Climbing Jacksonville Center
Sun 11:08:06 AM 28.8856 -81.3394 347° North 324 373 20,400 2,600 Climbing Jacksonville Center
Sun 11:09:06 AM 28.9903 -81.3661 347° North 353 406 23,000 2,300 Climbing Jacksonville Center
Sun 11:10:06 AM 29.0992 -81.3931 348° North 381 438 25,000 1,000 Climbing Jacksonville Center
Sun 11:11:06 AM 29.2119 -81.4008 357° North 397 457 25,000 50 Level Jacksonville Center
Sun 11:12:06 AM 29.3228 -81.4111 355° North 397 457 25,100 550 Climbing Jacksonville Center
Sun 11:13:06 AM 29.4356 -81.4261 353° North 402 463 26,100 1,150 Climbing Jacksonville Center
Sun 11:14:06 AM 29.5525 -81.4361 356° North 408 470 27,400 1,700 Climbing Jacksonville Center
Sun 11:15:06 AM 29.6717 -81.4464 356° North 414 476 29,500 2,000 Climbing Jacksonville Center
Sun 11:16:06 AM 29.7969 -81.4469 360° North 425 489 31,400 1,850 Climbing Jacksonville Center
Sun 11:17:06 AM 29.9264 -81.4450 North 445 512 33,200 2,100 Climbing Jacksonville Center
Sun 11:18:06 AM 30.0536 -81.4431 North 455 524 35,600 2,150 Climbing Jacksonville Center
Sun 11:19:06 AM 30.1811 -81.4411 North 455 524 37,500 1,650 Climbing Jacksonville Center
Sun 11:20:06 AM 30.3083 -81.4417 360° North 460 529 38,900 750 Climbing Jacksonville Center
Sun 11:21:06 AM 30.4358 -81.4397 North 460 529 39,000 50 Climbing Jacksonville Center
Sun 11:22:06 AM 30.5631 -81.4403 360° North 460 529 39,000 1,000 Level Jacksonville Center
Sun 11:23:06 AM 30.6883 -81.4431 359° North 454 522 41,000  Climbing Jacksonville Center
Sun 11:24:06 AM 30.8158 -81.4411 North 454 522 39,000 -1,000 Descending Jacksonville Center
Sun 11:25:06 AM 30.9408 -81.4392 North 454 522 39,000  Level Jacksonville Center
Sun 11:26:06 AM 31.0639 -81.4253 North 448 516 39,000  Level Jacksonville Center
Sun 11:27:06 AM 31.1739 -81.3508 30° Northeast 434 499 39,000  Level Jacksonville Center
Sun 11:28:06 AM 31.2833 -81.2686 33° Northeast 455 524 39,000 300 Level Jacksonville Center
Sun 11:29:06 AM 31.3786 -81.1942 34° Northeast 460 529 39,600 850 Climbing Jacksonville Center
Sun 11:30:06 AM 31.5003 -81.1017 33° Northeast 460 529 40,700 700 Climbing Jacksonville Center
Sun 11:31:06 AM 31.6119 -81.0192 32° Northeast 465 535 41,000 150 Climbing Jacksonville Center
Sun 11:32:06 AM 31.7089 -80.9464 33° Northeast 478 550 41,000  Level Jacksonville Center
Sun 11:33:06 AM 31.8308 -80.8533 33° Northeast 478 550 41,000  Level Jacksonville Center
Sun 11:34:06 AM 31.9442 -80.7700 32° Northeast 478 550 41,000  Level Jacksonville Center
Sun 11:35:06 AM 32.0556 -80.6839 33° Northeast 478 550 41,000  Level Jacksonville Center
Sun 11:36:06 AM 32.1542 -80.6081 33° Northeast 478 550 41,000  Level Jacksonville Center
Sun 11:37:06 AM 32.2656 -80.5242 32° Northeast 478 550 41,000  Level Jacksonville Center
Sun 11:38:06 AM 32.3767 -80.4378 33° Northeast 478 550 41,000  Level Jacksonville Center
Sun 11:39:06 AM 32.4897 -80.3508 33° Northeast 478 550 41,000  Level Jacksonville Center
Sun 11:40:06 AM 32.6006 -80.2664 33° Northeast 478 550 41,000  Level Jacksonville Center
Sun 11:41:06 AM 32.7156 -80.1767 33° Northeast 478 550 41,000  Level Jacksonville Center
Sun 11:42:06 AM 32.8389 -80.0789 34° Northeast 483 556 41,000  Level Jacksonville Center
Sun 11:43:06 AM 32.9581 -79.9986 29° Northeast 483 556 41,000  Level Jacksonville Center
Sun 11:44:06 AM 33.0794 -79.9303 25° Northeast 473 544 41,000  Level Jacksonville Center
Sun 11:45:06 AM 33.1992 -79.8667 24° Northeast 473 544 41,000  Level Jacksonville Center
Sun 11:47:00 AM 33.3881 -79.7480 25° Northeast  Level FlightAware Approximate
Sun 11:52:40 AM 34.0808 -79.3703 26° Northeast 467 537 41,000  Level Washington Center
Sun 11:53:42 AM 34.2019 -79.3031 25° Northeast 467 537 41,000  Level Washington Center
Sun 11:54:00 AM 34.1012 -79.3505 25° Northeast  Level FlightAware Approximate
Sun 11:54:40 AM 34.3231 -79.2306 26° Northeast 472 543 41,000  Level Washington Center
Sun 11:55:00 AM 34.2030 -79.2932 25° Northeast  Level FlightAware Approximate
Sun 11:55:41 AM 34.4439 -79.1628 25° Northeast 472 543 41,000  Level Washington Center
Sun 11:56:00 AM 34.3041 -79.2342 26° Northeast  Level FlightAware Approximate
Sun 11:56:41 AM 34.5608 -79.0947 26° Northeast 472 543 40,700  Level Washington Center
Sun 11:57:00 AM 34.4047 -79.1738 26° Northeast  Level FlightAware Approximate
Sun 11:57:42 AM 34.6797 -79.0242 26° Northeast 472 543 39,700  Level Washington Center
Sun 11:58:00 AM 34.5059 -79.1148 26° Northeast  Level FlightAware Approximate
Sun 11:58:42 AM 34.7964 -78.9583 25° Northeast 467 537 38,700  Level Washington Center
Sun 11:59:00 AM 34.6072 -79.0559 26° Northeast  Level FlightAware Approximate
Sun 11:59:40 AM 34.9131 -78.8897 26° Northeast 467 537 37,800  Level Washington Center
Sun 12:00:00 PM 34.7084 -78.9968 26° Northeast  Level FlightAware Approximate
Sun 12:00:40 PM 35.0294 -78.8233 25° Northeast 462 532 36,800  Level Washington Center
Sun 12:01:00 PM 34.8096 -78.9376 26° Northeast  Level FlightAware Approximate
Sun 12:01:41 PM 35.1461 -78.7544 26° Northeast 462 532 35,900  Level Washington Center
Sun 12:02:00 PM 34.9108 -78.8782 26° Northeast  Level FlightAware Approximate
Sun 12:02:42 PM 35.2628 -78.6853 26° Northeast 462 532 34,900  Level Washington Center
Sun 12:03:40 PM 35.4006 -78.6014 26° Northeast 476 548 33,100 -2,017 Descending Washington Center
Sun 12:04:41 PM 35.5064 -78.5392 26° Northeast 476 548 30,900 -2,380 Descending Washington Center
Sun 12:05:41 PM 35.6333 -78.4644 26° Northeast 460 529 28,300 -2,430 Descending Washington Center
Sun 12:06:42 PM 35.7414 -78.4019 25° Northeast 442 509 26,000 -2,132 Descending Washington Center
Sun 12:07:42 PM 35.8450 -78.3389 26° Northeast 420 483 24,000 -1,026 Descending Washington Center
Sun 12:08:39 PM 35.9381 -78.2858 25° Northeast 391 450 24,000  Level Washington Center
Sun 12:09:40 PM 36.0331 -78.2300 25° Northeast 377 434 24,000 -397 Level Washington Center
Sun 12:10:40 PM 36.1219 -78.1736 27° Northeast 365 420 23,200 -893 Descending Washington Center
Sun 12:11:41 PM 36.2128 -78.1175 26° Northeast 365 420 22,200 -992 Descending Washington Center
Sun 12:12:41 PM 36.3017 -78.0636 26° Northeast 360 414 21,200 -1,000 Descending Washington Center
Sun 12:13:41 PM 36.3819 -78.0172 25° Northeast 338 389 20,200 -893 Descending Washington Center
Sun 12:14:42 PM 36.4517 -77.9728 27° Northeast 322 371 19,400 -893 Descending Washington Center
Sun 12:15:42 PM 36.5278 -77.9261 26° Northeast 304 350 18,400 -915 Descending Washington Center
Sun 12:16:40 PM 36.5994 -77.8817 26° Northeast 292 336 17,600 -915 Descending Washington Center
Sun 12:17:40 PM 36.6692 -77.8397 26° Northeast 286 329 16,600 -992 Descending Washington Center
Sun 12:18:41 PM 36.7408 -77.7950 27° Northeast 286 329 15,600 -984 Descending Washington Center
Sun 12:19:42 PM 36.8169 -77.7478 26° Northeast 286 329 14,600 -992 Descending Washington Center
Sun 12:20:42 PM 36.8950 -77.7008 26° Northeast 293 337 13,600 -1,373 Descending Washington Center
Sun 12:21:40 PM 36.9686 -77.6533 27° Northeast 293 337 11,900 -1,765 Descending Washington Center
Sun 12:22:41 PM 37.0425 -77.6086 26° Northeast 293 337 10,100 -1,574 Descending Washington Center
Sun 12:23:42 PM 37.1183 -77.5611 27° Northeast 288 331 8,700 -1,322 Descending Washington Center
Sun 12:24:39 PM 37.1817 -77.5183 28° Northeast 272 313 7,500 -1,109 Descending Washington Center
Sun 12:25:41 PM 37.2408 -77.4756 30° Northeast 260 299 6,500 -1,268 Descending Washington Center
Sun 12:26:42 PM 37.2892 -77.4400 30° Northeast 226 260 4,900 -1,686 Descending Washington Center
Sun 12:27:42 PM 37.3400 -77.4047 29° Northeast 209 241 3,100 -1,475 Descending Washington Center
Sun 12:28:40 PM 37.3861 -77.3719 29° Northeast 199 229 2,000 -759 Descending Washington Center
Sun 12:30:28 PM 37.4667 -77.3333 21° North 132 152 1,000 -556 Descending Potomac TRACON
Sun 12:32:00 PM 37.5000 -77.3167 22° Northeast  Level FlightAware Approximate
Sun 12:39:00 PM 37.5052 -77.3197 22° Northeast  Level Estimated
Sun 12:40:00 PM 37.5000 -77.3167 22° Northeast  Level FlightAware Approximate

Login

Don't have an account? Register now (free) for customized features, flight alerts, and more!